Time;durP1;ratioP1;P1;durP2;ratioP2;P2;SDS_P1;SDS_P2;PMS_P1;PMS_P2;Temp;Humidity;BMP_temperature;BMP_pressure;BME280_temperature;BME280_humidity;BME280_pressure;Samples;Min_cycle;Max_cycle;Signal;HPM_P1;HPM_P2
2022/02/10 00:06:02;;;;;;;36.45;17.67;;;;;;;0.99;83.29;98842.69;5030388;28;20052;-71
2022/02/10 00:22:11;;;;;;;34.60;17.13;;;;;;;0.65;85.06;98861.00;5024162;28;20053;-72
2022/02/10 00:34:57;;;;;;;37.95;18.55;;;;;;;0.38;89.50;98846.75;5019024;28;20052;-72
2022/02/10 00:37:35;;;;;;;37.10;15.77;;;;;;;0.38;89.36;98852.94;5027795;28;20034;-73
2022/02/10 00:42:29;;;;;;;32.05;16.35;;;;;;;0.21;90.67;98845.53;5034733;28;20029;-72
2022/02/10 00:44:54;;;;;;;40.90;16.27;;;;;;;0.32;90.74;98852.94;5032240;28;20029;-72
2022/02/10 00:47:20;;;;;;;35.42;16.88;;;;;;;0.41;89.82;98844.47;5032126;28;20676;-73
2022/02/10 00:49:47;;;;;;;32.97;16.20;;;;;;;0.43;89.68;98849.66;5031874;28;20446;-72
2022/02/10 00:52:13;;;;;;;41.70;16.83;;;;;;;0.55;89.30;98847.97;5030633;28;20120;-72
2022/02/10 00:54:39;;;;;;;35.75;16.73;;;;;;;0.52;89.41;98853.78;5032130;28;20032;-73
2022/02/10 00:57:07;;;;;;;34.58;15.30;;;;;;;0.63;89.65;98850.44;5031917;28;20072;-72
2022/02/10 01:31:38;;;;;;;37.03;16.80;;;;;;;0.30;90.62;98849.66;5032994;28;20107;-73
2022/02/10 01:34:04;;;;;;;34.22;15.68;;;;;;;0.35;91.26;98849.84;5031434;28;20038;-72
2022/02/10 01:36:30;;;;;;;35.97;16.75;;;;;;;0.36;90.96;98851.50;5030818;28;20029;-72
2022/02/10 01:38:56;;;;;;;41.65;17.08;;;;;;;0.31;90.78;98845.94;5032319;28;20044;-72
2022/02/10 02:05:52;;;;;;;34.08;17.60;;;;;;;-0.21;94.59;98836.81;5010926;28;20757;-72
2022/02/10 02:08:23;;;;;;;32.60;16.25;;;;;;;-0.29;95.46;98833.50;5011725;28;20379;-72
2022/02/10 02:10:49;;;;;;;34.20;15.95;;;;;;;-0.39;96.90;98828.50;5023990;28;20048;-72
2022/02/10 02:13:14;;;;;;;40.53;17.50;;;;;;;-0.31;97.02;98825.63;5046985;28;20554;-72
2022/02/10 02:15:40;;;;;;;37.38;17.40;;;;;;;-0.25;96.34;98822.09;5031766;28;20025;-72
2022/02/10 02:18:05;;;;;;;36.20;16.13;;;;;;;-0.23;96.55;98833.50;5031753;28;20026;-73
2022/02/10 02:20:30;;;;;;;37.45;16.42;;;;;;;-0.35;95.93;98829.78;5031469;28;20051;-73
2022/02/10 02:22:56;;;;;;;40.42;16.80;;;;;;;-0.45;97.02;98823.97;5031707;28;20029;-72
2022/02/10 02:25:22;;;;;;;35.78;15.85;;;;;;;-0.44;97.19;98831.00;5030590;28;20022;-71
2022/02/10 02:27:52;;;;;;;35.72;16.60;;;;;;;-0.59;97.65;98816.88;5031294;28;20025;-72
2022/02/10 02:30:24;;;;;;;37.08;16.63;;;;;;;-0.56;98.50;98816.47;5031206;28;20033;-72
2022/02/10 03:05:37;;;;;;;35.05;15.63;;;;;;;-0.46;100.00;98799.97;5046751;28;20126;-72
2022/02/10 03:08:11;;;;;;;38.05;14.70;;;;;;;-0.46;100.00;98802.66;5035872;28;20036;-71
2022/02/10 03:13:16;;;;;;;32.45;16.23;;;;;;;-0.61;100.00;98803.66;5030583;28;20028;-72
2022/02/10 03:18:43;;;;;;;32.45;14.57;;;;;;;-0.56;100.00;98801.19;5035100;28;20028;-71
2022/02/10 04:26:36;;;;;;;35.47;14.75;;;;;;;-1.09;100.00;98807.41;5034533;28;20642;-72
2022/02/10 04:37:54;;;;;;;34.42;15.10;;;;;;;-1.15;100.00;98806.38;5033658;28;20036;-71
2022/02/10 04:54:41;;;;;;;31.45;15.65;;;;;;;-0.57;100.00;98794.19;5033525;28;20445;-71
2022/02/10 05:20:21;;;;;;;28.02;12.98;;;;;;;-0.99;100.00;98782.88;5032767;28;20041;-71
2022/02/10 05:23:02;;;;;;;34.03;15.55;;;;;;;-0.94;100.00;98775.06;5033086;28;20025;-73
2022/02/10 05:33:55;;;;;;;31.20;14.32;;;;;;;-1.03;100.00;98789.72;5032786;28;20078;-71
2022/02/10 05:36:24;;;;;;;35.28;15.68;;;;;;;-1.09;100.00;98772.53;5032541;28;20034;-71
2022/02/10 05:38:59;;;;;;;36.97;16.50;;;;;;;-1.16;100.00;98777.88;5032208;28;20113;-71
2022/02/10 05:41:56;;;;;;;33.05;15.50;;;;;;;-1.02;100.00;98783.28;5032380;28;20139;-71
2022/02/10 05:44:49;;;;;;;32.35;15.07;;;;;;;-1.06;100.00;98782.88;5032241;28;20466;-71
2022/02/10 06:54:43;;;;;;;34.85;15.20;;;;;;;-0.02;100.00;98814.50;5030907;28;20030;-71
2022/02/10 08:56:00;;;;;;;25.17;12.55;;;;;;;14.64;37.40;98754.16;5028290;28;20044;-73
2022/02/10 09:22:53;;;;;;;30.58;16.17;;;;;;;13.97;37.52;98754.69;5022456;28;20107;-75
2022/02/10 10:02:54;;;;;;;25.98;13.73;;;;;;;13.52;38.35;98745.94;5019385;28;20384;-73
2022/02/10 10:15:47;;;;;;;41.53;18.45;;;;;;;9.01;51.06;98711.69;5024029;28;20032;-74
2022/02/10 10:19:01;;;;;;;40.05;19.27;;;;;;;8.79;52.21;98719.22;5022049;28;20029;-74
2022/02/10 10:56:54;;;;;;;35.17;16.75;;;;;;;10.25;54.04;98656.69;5028900;28;20048;-73
2022/02/10 10:59:52;;;;;;;31.95;16.67;;;;;;;10.20;55.18;98651.25;5031875;28;20108;-71
2022/02/10 11:41:50;;;;;;;29.35;16.55;;;;;;;12.01;48.04;98626.78;5037047;28;20097;-72
2022/02/10 12:00:01;;;;;;;25.63;14.73;;;;;;;11.48;49.55;98626.63;5031035;28;20103;-71
2022/02/10 14:13:24;;;;;;;33.70;17.67;;;;;;;9.56;64.63;98588.97;5046188;28;20451;-71
2022/02/10 14:18:27;;;;;;;36.63;17.92;;;;;;;9.50;65.14;98589.22;5044019;28;20025;-71
2022/02/10 14:28:43;;;;;;;37.92;17.92;;;;;;;9.51;65.78;98586.22;5042345;28;20095;-71
2022/02/10 14:31:09;;;;;;;34.42;19.23;;;;;;;9.44;66.58;98591.13;5044931;28;20029;-71
2022/02/10 14:33:37;;;;;;;35.40;18.67;;;;;;;9.32;67.50;98598.78;5034900;28;20486;-72
2022/02/10 14:36:10;;;;;;;37.17;20.45;;;;;;;9.24;68.26;98591.09;5047246;28;20108;-71
2022/02/10 15:54:43;;;;;;;39.10;20.63;;;;;;;7.82;83.88;98573.34;5037631;28;20043;-72
2022/02/10 16:10:55;;;;;;;42.95;18.73;;;;;;;7.67;87.46;98572.41;5038190;28;20035;-72
2022/02/10 16:18:14;;;;;;;39.38;19.40;;;;;;;7.48;90.29;98578.28;5030597;28;20025;-72
2022/02/10 16:20:49;;;;;;;40.78;19.75;;;;;;;7.55;90.79;98575.31;5027241;28;20034;-73
2022/02/10 16:23:19;;;;;;;41.20;19.55;;;;;;;7.54;91.69;98577.22;5031100;28;20137;-72
2022/02/10 16:25:50;;;;;;;41.97;19.60;;;;;;;7.45;92.52;98570.63;5031262;28;20481;-73
2022/02/10 16:28:28;;;;;;;42.45;19.15;;;;;;;7.41;93.41;98577.66;5029334;28;20025;-73
2022/02/10 16:30:55;;;;;;;41.20;20.55;;;;;;;7.31;93.11;98571.31;5032421;28;20097;-72
2022/02/10 16:33:20;;;;;;;35.67;18.50;;;;;;;7.32;93.39;98579.22;5034095;28;20040;-72
2022/02/10 16:35:46;;;;;;;36.75;19.10;;;;;;;7.24;94.34;98568.78;5026661;28;20100;-73
2022/02/10 16:38:12;;;;;;;39.88;19.90;;;;;;;7.14;95.52;98582.28;5025678;28;20030;-73
2022/02/10 16:40:40;;;;;;;43.28;20.05;;;;;;;7.10;95.72;98580.34;5027420;28;20021;-72
2022/02/10 16:43:06;;;;;;;47.08;20.65;;;;;;;7.12;96.07;98584.47;5026483;28;20495;-73
2022/02/10 16:45:32;;;;;;;39.28;19.83;;;;;;;7.06;95.67;98574.63;5030341;28;20017;-74
2022/02/10 16:47:58;;;;;;;35.45;18.35;;;;;;;7.04;95.92;98575.94;5033106;28;20049;-72
2022/02/10 16:50:24;;;;;;;39.83;18.67;;;;;;;6.91;96.09;98577.19;5023583;28;20017;-72
2022/02/10 16:52:57;;;;;;;39.45;19.38;;;;;;;6.87;96.57;98576.03;5018034;28;20113;-73
2022/02/10 16:55:44;;;;;;;39.53;18.48;;;;;;;6.79;96.74;98585.50;5051076;28;20040;-74
2022/02/10 17:04:18;;;;;;;43.78;20.27;;;;;;;6.63;97.99;98585.56;5040042;28;20142;-73
2022/02/10 17:25:21;;;;;;;50.10;23.85;;;;;;;5.91;100.00;98564.00;5028595;28;20025;-73
2022/02/10 17:27:53;;;;;;;44.88;23.77;;;;;;;5.98;100.00;98571.97;5034377;28;20482;-75
2022/02/10 17:33:12;;;;;;;42.40;22.70;;;;;;;5.90;100.00;98574.03;5043706;28;20422;-74
2022/02/10 17:54:26;;;;;;;39.85;19.27;;;;;;;5.85;100.00;98559.56;5031539;28;20276;-75
2022/02/10 17:56:52;;;;;;;47.00;21.20;;;;;;;5.78;100.00;98561.63;5026192;28;20021;-74
2022/02/10 17:59:19;;;;;;;48.47;20.90;;;;;;;5.77;100.00;98568.09;5026775;28;20403;-73
2022/02/10 18:01:48;;;;;;;56.33;25.95;;;;;;;5.66;100.00;98579.91;5033917;28;20029;-73
2022/02/10 18:04:16;;;;;;;51.78;21.45;;;;;;;5.50;100.00;98578.00;5042900;28;20025;-74
2022/02/10 18:06:45;;;;;;;48.55;22.13;;;;;;;5.40;100.00;98574.06;5043052;28;20104;-73
2022/02/10 18:14:48;;;;;;;42.35;21.52;;;;;;;5.20;100.00;98581.84;5040785;28;20030;-73
2022/02/10 18:17:15;;;;;;;42.42;21.17;;;;;;;5.18;100.00;98575.03;5031127;28;20458;-73
2022/02/10 18:27:59;;;;;;;42.17;22.65;;;;;;;5.05;100.00;98580.75;5027057;28;20095;-72
2022/02/10 18:30:22;;;;;;;46.25;23.23;;;;;;;4.93;100.00;98572.69;5031571;28;20051;-72
2022/02/10 19:06:33;;;;;;;50.97;20.73;;;;;;;4.84;100.00;98575.00;4949286;28;20039;-73
2022/02/10 19:09:06;;;;;;;39.28;20.50;;;;;;;4.76;100.00;98564.53;4947725;28;20080;-73
2022/02/10 19:11:33;;;;;;;45.25;20.25;;;;;;;4.60;100.00;98564.50;5022420;28;20657;-71
2022/02/10 19:14:03;;;;;;;48.63;22.27;;;;;;;4.49;100.00;98570.78;5021152;28;20049;-72
2022/02/10 19:16:29;;;;;;;43.97;21.88;;;;;;;4.44;100.00;98571.50;5024082;28;20036;-73
2022/02/10 19:18:54;;;;;;;47.35;24.05;;;;;;;4.45;100.00;98573.13;5025217;28;20029;-73
2022/02/10 19:21:20;;;;;;;59.75;24.75;;;;;;;4.43;100.00;98572.56;5032114;28;20029;-74
2022/02/10 19:23:45;;;;;;;52.90;24.33;;;;;;;4.35;100.00;98572.13;5041706;28;20449;-73
2022/02/10 19:26:11;;;;;;;50.75;24.13;;;;;;;4.30;100.00;98568.25;5039695;28;20017;-72
2022/02/10 19:28:36;;;;;;;53.83;23.63;;;;;;;4.33;100.00;98575.91;5038967;28;20075;-73
2022/02/10 19:31:04;;;;;;;47.42;22.80;;;;;;;4.32;100.00;98566.13;5039130;28;20529;-75
2022/02/10 19:33:30;;;;;;;53.72;23.42;;;;;;;4.33;100.00;98575.91;5026429;28;20026;-74
2022/02/10 19:35:55;;;;;;;46.40;25.10;;;;;;;4.27;100.00;98566.03;5035344;28;20079;-73
2022/02/10 19:38:23;;;;;;;54.80;25.33;;;;;;;4.33;100.00;98569.66;5032370;28;20017;-74
2022/02/10 19:40:54;;;;;;;58.03;27.27;;;;;;;4.26;100.00;98583.31;5037610;28;20048;-75
2022/02/10 19:43:21;;;;;;;54.00;26.27;;;;;;;4.26;100.00;98569.78;5041157;28;20020;-78
2022/02/10 19:45:47;;;;;;;59.20;26.17;;;;;;;4.19;100.00;98561.00;5042881;28;20071;-74
2022/02/10 19:48:14;;;;;;;52.55;26.85;;;;;;;4.15;100.00;98575.25;5030481;28;20025;-74
2022/02/10 19:50:40;;;;;;;57.67;25.58;;;;;;;4.19;100.00;98571.00;5024126;28;20124;-74
2022/02/10 19:53:09;;;;;;;55.55;25.42;;;;;;;4.21;100.00;98563.44;5023611;28;20020;-73
2022/02/10 19:55:36;;;;;;;56.25;24.42;;;;;;;4.24;100.00;98561.09;5029109;28;20021;-74
2022/02/10 19:58:09;;;;;;;62.83;27.33;;;;;;;4.11;100.00;98569.47;5041727;28;20032;-74
2022/02/10 20:00:41;;;;;;;58.00;24.73;;;;;;;4.08;100.00;98566.41;5041464;28;20044;-76
2022/02/10 20:03:19;;;;;;;59.40;25.25;;;;;;;4.22;100.00;98565.09;5039247;28;20041;-74
2022/02/10 20:05:46;;;;;;;61.50;25.50;;;;;;;4.17;100.00;98575.81;5032179;28;20029;-74
2022/02/10 20:08:23;;;;;;;59.58;27.77;;;;;;;4.15;100.00;98570.66;5038079;28;20061;-73
2022/02/10 20:10:54;;;;;;;53.10;25.88;;;;;;;4.22;100.00;98567.81;5030939;28;20028;-74
2022/02/10 20:13:21;;;;;;;58.08;26.88;;;;;;;4.06;100.00;98547.72;5030373;28;20072;-74
2022/02/10 20:15:47;;;;;;;71.53;28.60;;;;;;;4.19;100.00;98557.47;5041749;28;20478;-73
2022/02/10 20:18:15;;;;;;;62.13;27.98;;;;;;;4.26;100.00;98569.78;5049046;28;20021;-74
2022/02/10 20:20:55;;;;;;;69.20;33.08;;;;;;;4.23;100.00;98545.06;5035360;28;20026;-74
2022/02/10 20:23:22;;;;;;;62.85;31.08;;;;;;;4.30;100.00;98560.13;5044502;28;20116;-74
2022/02/10 20:25:52;;;;;;;65.55;29.98;;;;;;;4.13;100.00;98553.84;5035228;28;20044;-77
2022/02/10 20:28:22;;;;;;;68.50;30.98;;;;;;;3.86;100.00;98524.81;5039029;28;20882;-76
2022/02/10 20:30:49;;;;;;;68.32;33.10;;;;;;;4.12;100.00;98573.00;5035116;28;20021;-75
2022/02/10 20:33:18;;;;;;;115.13;45.63;;;;;;;3.88;100.00;98520.81;5039655;28;20037;-73
2022/02/10 20:35:46;;;;;;;119.20;45.72;;;;;;;4.16;100.00;98557.94;5034235;28;20025;-74
2022/02/10 20:38:15;;;;;;;121.97;48.30;;;;;;;4.23;100.00;98564.84;5034992;28;20033;-73
2022/02/10 20:40:43;;;;;;;109.15;46.63;;;;;;;4.24;100.00;98574.63;5035466;28;20033;-74
2022/02/10 20:43:09;;;;;;;99.13;44.45;;;;;;;4.36;100.00;98568.34;5045547;28;20722;-75
2022/02/10 20:45:36;;;;;;;100.47;42.65;;;;;;;4.37;100.00;98570.00;5027262;28;20108;-75
2022/02/10 20:48:03;;;;;;;76.65;34.63;;;;;;;4.39;100.00;98571.41;5029834;28;20025;-73
2022/02/10 20:50:29;;;;;;;71.68;34.05;;;;;;;4.40;100.00;98569.50;5039938;28;20048;-73
2022/02/10 20:52:55;;;;;;;67.97;31.00;;;;;;;4.51;100.00;98579.50;5047670;28;20060;-73
2022/02/10 20:55:20;;;;;;;57.08;27.20;;;;;;;4.57;100.00;98567.69;5048668;28;20039;-75
2022/02/10 20:57:46;;;;;;;55.20;26.17;;;;;;;4.59;100.00;98573.69;5039468;28;20024;-75
2022/02/10 21:00:15;;;;;;;49.92;26.83;;;;;;;4.60;100.00;98570.75;5042382;28;20495;-74
2022/02/10 21:02:44;;;;;;;51.80;27.08;;;;;;;4.63;100.00;98570.28;5046694;28;20500;-74
2022/02/10 21:05:25;;;;;;;56.15;25.92;;;;;;;4.74;100.00;98571.25;5035584;28;20037;-74
2022/02/10 21:08:08;;;;;;;59.25;28.55;;;;;;;4.68;100.00;98572.25;5048884;28;20037;-76
2022/02/10 21:10:35;;;;;;;62.40;27.48;;;;;;;4.67;100.00;98562.44;5043363;28;20819;-75
2022/02/10 21:13:01;;;;;;;56.97;27.83;;;;;;;4.67;100.00;98571.41;5037731;28;20037;-75
2022/02/10 21:15:31;;;;;;;66.18;29.52;;;;;;;4.60;100.00;98564.50;5048065;28;20463;-75
2022/02/10 21:18:01;;;;;;;61.60;29.83;;;;;;;4.61;100.00;98566.13;5039888;28;20067;-74
2022/02/10 21:20:32;;;;;;;74.78;34.08;;;;;;;4.62;100.00;98563.19;5038352;28;20041;-74
2022/02/10 21:25:42;;;;;;;66.28;27.65;;;;;;;4.70;100.00;98554.66;5023888;28;20025;-73
2022/02/10 21:28:32;;;;;;;57.30;27.58;;;;;;;4.71;100.00;98563.63;5041553;28;20029;-78
2022/02/10 21:30:57;;;;;;;62.00;28.80;;;;;;;4.70;100.00;98561.97;5049882;28;20042;-75
2022/02/10 21:38:46;;;;;;;60.45;27.67;;;;;;;4.50;100.00;98546.19;5045743;28;20017;-77
2022/02/10 22:11:58;;;;;;;54.88;28.13;;;;;;;4.63;100.00;98523.38;5012444;28;20044;-74
2022/02/10 22:17:05;;;;;;;59.67;27.58;;;;;;;4.81;100.00;98531.31;5030777;28;20110;-74
2022/02/10 22:19:44;;;;;;;48.53;25.65;;;;;;;4.81;100.00;98520.47;5025845;28;20429;-74
2022/02/10 22:22:14;;;;;;;59.00;28.98;;;;;;;4.73;100.00;98515.44;5030554;28;20033;-76
2022/02/10 22:24:40;;;;;;;51.85;27.08;;;;;;;4.69;100.00;98525.13;5045698;28;20033;-75
2022/02/10 22:27:05;;;;;;;53.47;26.83;;;;;;;4.60;100.00;98521.16;5035425;28;20034;-73
2022/02/10 22:29:45;;;;;;;58.33;28.23;;;;;;;4.48;100.00;98526.63;5049938;28;20063;-74
2022/02/10 22:32:25;;;;;;;59.90;28.60;;;;;;;4.47;100.00;98516.03;5044149;28;20063;-74
2022/02/10 22:34:54;;;;;;;55.88;30.10;;;;;;;4.46;100.00;98511.69;5035521;28;20501;-74
2022/02/10 22:37:20;;;;;;;68.82;31.25;;;;;;;4.55;100.00;98512.94;5057189;28;20075;-74
2022/02/10 22:39:47;;;;;;;60.55;29.92;;;;;;;4.65;100.00;98505.00;5045153;28;20033;-73
2022/02/10 22:42:13;;;;;;;54.78;29.55;;;;;;;4.65;100.00;98515.84;5047907;28;20076;-73
2022/02/10 22:44:39;;;;;;;53.53;29.42;;;;;;;4.71;100.00;98514.84;5045303;28;20028;-73
2022/02/10 22:47:07;;;;;;;57.85;30.42;;;;;;;4.75;100.00;98514.13;5033261;28;20036;-75
2022/02/10 22:49:32;;;;;;;60.70;30.83;;;;;;;4.61;100.00;98515.50;5035595;28;20047;-75
2022/02/10 22:51:58;;;;;;;66.00;30.85;;;;;;;4.58;100.00;98507.03;5042431;28;20514;-75
2022/02/10 22:54:27;;;;;;;65.40;32.60;;;;;;;4.50;100.00;98502.00;5030639;28;20025;-75
2022/02/10 22:56:54;;;;;;;58.13;30.70;;;;;;;4.62;100.00;98503.59;5030356;28;20037;-75
2022/02/10 22:59:20;;;;;;;62.75;29.70;;;;;;;4.75;100.00;98507.88;5044810;28;20036;-75
2022/02/10 23:01:45;;;;;;;59.22;28.95;;;;;;;4.86;100.00;98499.69;5037160;28;20394;-75
2022/02/10 23:04:11;;;;;;;56.95;29.58;;;;;;;4.89;100.00;98509.22;5040472;28;20025;-75
2022/02/10 23:06:38;;;;;;;58.40;30.88;;;;;;;4.90;100.00;98504.59;5043894;28;20028;-75
2022/02/10 23:11:51;;;;;;;67.78;29.52;;;;;;;4.77;100.00;98501.16;5043142;28;20537;-75
2022/02/10 23:14:17;;;;;;;62.63;30.52;;;;;;;4.66;100.00;98502.06;5040802;28;20024;-75
2022/02/10 23:16:45;;;;;;;54.05;28.92;;;;;;;4.68;100.00;98502.63;5035639;28;20033;-74
2022/02/10 23:19:11;;;;;;;63.45;29.20;;;;;;;4.68;100.00;98501.78;5046473;28;20021;-75
2022/02/10 23:21:37;;;;;;;61.65;29.98;;;;;;;4.72;100.00;98501.06;5033862;28;20025;-74
2022/02/10 23:24:03;;;;;;;70.90;29.95;;;;;;;4.72;100.00;98505.66;5027843;28;20387;-75
2022/02/10 23:26:29;;;;;;;59.78;29.60;;;;;;;4.82;100.00;98513.97;5038414;28;20313;-74
2022/02/10 23:28:56;;;;;;;55.65;29.40;;;;;;;4.64;100.00;98506.06;5045935;28;20071;-74
2022/02/10 23:31:23;;;;;;;51.83;30.33;;;;;;;4.69;100.00;98517.00;5033340;28;20025;-74
2022/02/10 23:33:56;;;;;;;55.42;29.02;;;;;;;4.60;100.00;98510.34;5042976;28;20021;-74
2022/02/10 23:44:16;;;;;;;55.20;29.00;;;;;;;4.65;100.00;98510.41;5039567;28;20040;-75
2022/02/10 23:46:43;;;;;;;56.70;28.67;;;;;;;4.62;100.00;98502.78;5035176;28;20108;-74
2022/02/10 23:49:09;;;;;;;54.70;28.85;;;;;;;4.58;100.00;98507.03;5046078;28;20525;-75
2022/02/10 23:51:45;;;;;;;58.40;29.60;;;;;;;4.60;100.00;98516.56;5034846;28;20113;-77
2022/02/10 23:54:10;;;;;;;57.13;29.55;;;;;;;4.60;100.00;98502.19;5048021;28;20025;-74
2022/02/10 23:56:42;;;;;;;54.58;28.83;;;;;;;4.52;100.00;98508.81;5035809;28;20040;-74
2022/02/10 23:59:19;;;;;;;57.22;29.38;;;;;;;4.58;100.00;98502.44;5044483;28;20049;-74
